EAL9010 KMCI-KHSV
Flight info
| Callsign | EAL9010 |
|---|---|
| Flight time | 1h 15m |
| Altitude | 41000 |
| Route | RACER8 SGF ARG/N0441F330 Q26 DEVAC |
| Aircraft | B772/H-SDE3FGHIJ1J3J7M3P2RWXYZ/SB2D1 |
Departure
| Time | 2026-04-24 14:48 |
|---|---|
| Airport | Kansas City International Airport (KMCI) |
Arrival
| Time | 2026-04-24 16:04 |
|---|---|
| Airport | Huntsville International Airport (KHSV) |
| Time | Latitude | Longitude | Altitude | Speed | Heading |
|---|---|---|---|---|---|
| 2026-04-24 14:20 | 39.29756 | -94.69930 | 1020 ft | 0 kts | 152° |
| 2026-04-24 14:32 | 39.29758 | -94.69930 | 1020 ft | 0 kts | 152° |
| 2026-04-24 14:35 | 39.29753 | -94.69927 | 1020 ft | 2 kts | 157° |
| 2026-04-24 14:35 | 39.29732 | -94.69924 | 1021 ft | 3 kts | 185° |
| 2026-04-24 14:35 | 39.29706 | -94.69946 | 1021 ft | 5 kts | 238° |
| 2026-04-24 14:36 | 39.29693 | -94.70023 | 1021 ft | 11 kts | 259° |
| 2026-04-24 14:36 | 39.29657 | -94.70131 | 1019 ft | 15 kts | 222° |
| 2026-04-24 14:36 | 39.29552 | -94.70185 | 1019 ft | 16 kts | 194° |
| 2026-04-24 14:36 | 39.29445 | -94.70219 | 1021 ft | 15 kts | 192° |
| 2026-04-24 14:37 | 39.29349 | -94.70246 | 1023 ft | 14 kts | 192° |
| 2026-04-24 14:37 | 39.29247 | -94.70275 | 1025 ft | 15 kts | 193° |
| 2026-04-24 14:37 | 39.29139 | -94.70308 | 1026 ft | 16 kts | 193° |
| 2026-04-24 14:37 | 39.29053 | -94.70337 | 1027 ft | 10 kts | 208° |
| 2026-04-24 14:38 | 39.29031 | -94.70438 | 1026 ft | 14 kts | 272° |
| 2026-04-24 14:38 | 39.29040 | -94.70581 | 1024 ft | 17 kts | 276° |
| 2026-04-24 14:38 | 39.29050 | -94.70732 | 1022 ft | 13 kts | 267° |
| 2026-04-24 14:38 | 39.29005 | -94.70809 | 1022 ft | 11 kts | 195° |
| 2026-04-24 14:39 | 39.28917 | -94.70835 | 1023 ft | 13 kts | 193° |
| 2026-04-24 14:39 | 39.28818 | -94.70865 | 1024 ft | 15 kts | 193° |
| 2026-04-24 14:39 | 39.28708 | -94.70898 | 1025 ft | 17 kts | 193° |
| 2026-04-24 14:39 | 39.28584 | -94.70937 | 1024 ft | 19 kts | 193° |
| 2026-04-24 14:40 | 39.28466 | -94.70972 | 1023 ft | 14 kts | 192° |
| 2026-04-24 14:40 | 39.28373 | -94.70999 | 1021 ft | 8 kts | 192° |
| 2026-04-24 14:40 | 39.28364 | -94.71001 | 1021 ft | 0 kts | 192° |
| 2026-04-24 14:45 | 39.28342 | -94.71008 | 1020 ft | 7 kts | 192° |
| 2026-04-24 14:45 | 39.28269 | -94.71027 | 1019 ft | 13 kts | 192° |
| 2026-04-24 14:46 | 39.28194 | -94.71030 | 1018 ft | 9 kts | 144° |
| 2026-04-24 14:46 | 39.28170 | -94.70950 | 1017 ft | 9 kts | 100° |
| 2026-04-24 14:46 | 39.28181 | -94.70895 | 1018 ft | 5 kts | 26° |
| 2026-04-24 14:46 | 39.28206 | -94.70885 | 1018 ft | 0 kts | 14° |
| 2026-04-24 14:47 | 39.28213 | -94.70882 | 1019 ft | 6 kts | 14° |
| 2026-04-24 14:47 | 39.28419 | -94.70819 | 1023 ft | 63 kts | 12° |
| 2026-04-24 14:47 | 39.29085 | -94.70624 | 1023 ft | 131 kts | 12° |
| 2026-04-24 14:48 | 39.30117 | -94.70322 | 1348 ft | 155 kts | 12° |
| 2026-04-24 14:48 | 39.31141 | -94.70019 | 2007 ft | 157 kts | 12° |
| 2026-04-24 14:48 | 39.32152 | -94.69647 | 2573 ft | 156 kts | 31° |
| 2026-04-24 14:48 | 39.32689 | -94.68356 | 2732 ft | 185 kts | 87° |
| 2026-04-24 14:49 | 39.32242 | -94.66732 | 3119 ft | 208 kts | 125° |
| 2026-04-24 14:49 | 39.31091 | -94.65440 | 3478 ft | 230 kts | 140° |
| 2026-04-24 14:49 | 39.29783 | -94.64188 | 4075 ft | 239 kts | 141° |
| 2026-04-24 14:49 | 39.28443 | -94.62896 | 4844 ft | 239 kts | 140° |
| 2026-04-24 14:50 | 39.26978 | -94.61838 | 5342 ft | 253 kts | 166° |
| 2026-04-24 14:50 | 39.25217 | -94.61758 | 5930 ft | 260 kts | 183° |
| 2026-04-24 14:50 | 39.23353 | -94.61765 | 6419 ft | 275 kts | 179° |
| 2026-04-24 14:50 | 39.21397 | -94.61677 | 7037 ft | 283 kts | 178° |
| 2026-04-24 14:51 | 39.19423 | -94.61580 | 7719 ft | 288 kts | 179° |
| 2026-04-24 14:51 | 39.17418 | -94.61481 | 8440 ft | 290 kts | 179° |
| 2026-04-24 14:51 | 39.15403 | -94.61382 | 9082 ft | 294 kts | 179° |
| 2026-04-24 14:51 | 39.13345 | -94.61281 | 9663 ft | 299 kts | 179° |
| 2026-04-24 14:52 | 39.11264 | -94.61179 | 10266 ft | 303 kts | 179° |
| 2026-04-24 14:52 | 39.09093 | -94.61073 | 10572 ft | 319 kts | 179° |
| 2026-04-24 14:52 | 39.06804 | -94.60963 | 10868 ft | 337 kts | 179° |
| 2026-04-24 14:52 | 39.04414 | -94.60847 | 11213 ft | 353 kts | 179° |
| 2026-04-24 14:53 | 39.01908 | -94.60726 | 11615 ft | 368 kts | 179° |
| 2026-04-24 14:53 | 38.99292 | -94.60599 | 12018 ft | 383 kts | 179° |
| 2026-04-24 14:53 | 38.96574 | -94.60466 | 12599 ft | 394 kts | 180° |
| 2026-04-24 14:53 | 38.93843 | -94.60332 | 13445 ft | 398 kts | 180° |
| 2026-04-24 14:54 | 38.91098 | -94.60196 | 14390 ft | 401 kts | 180° |
| 2026-04-24 14:54 | 38.88287 | -94.60058 | 15365 ft | 405 kts | 180° |
| 2026-04-24 14:54 | 38.85435 | -94.59917 | 16429 ft | 407 kts | 181° |
| 2026-04-24 14:54 | 38.82599 | -94.59778 | 17402 ft | 411 kts | 181° |
| 2026-04-24 14:55 | 38.80705 | -94.59685 | 18041 ft | 414 kts | 181° |
| 2026-04-24 14:55 | 38.76894 | -94.59497 | 19414 ft | 416 kts | 182° |
| 2026-04-24 14:55 | 38.74014 | -94.59354 | 20459 ft | 417 kts | 183° |
| 2026-04-24 14:55 | 38.71102 | -94.59212 | 21464 ft | 418 kts | 183° |
| 2026-04-24 14:56 | 38.68216 | -94.58806 | 22470 ft | 425 kts | 177° |
| 2026-04-24 14:56 | 38.65306 | -94.58114 | 23387 ft | 429 kts | 176° |
| 2026-04-24 14:56 | 38.62345 | -94.57389 | 24105 ft | 436 kts | 176° |
| 2026-04-24 14:56 | 38.59373 | -94.56660 | 24966 ft | 439 kts | 176° |
| 2026-04-24 14:57 | 38.56369 | -94.55924 | 25839 ft | 441 kts | 175° |
| 2026-04-24 14:57 | 38.53352 | -94.55187 | 26616 ft | 445 kts | 175° |
| 2026-04-24 14:57 | 38.50265 | -94.54433 | 27299 ft | 450 kts | 175° |
| 2026-04-24 14:57 | 38.47201 | -94.53687 | 27935 ft | 455 kts | 175° |
| 2026-04-24 14:58 | 38.44070 | -94.52924 | 28596 ft | 459 kts | 175° |
| 2026-04-24 14:58 | 38.40965 | -94.52169 | 29274 ft | 461 kts | 175° |
| 2026-04-24 14:58 | 38.37776 | -94.51394 | 30011 ft | 462 kts | 175° |
| 2026-04-24 14:58 | 38.34659 | -94.50635 | 30876 ft | 461 kts | 175° |
| 2026-04-24 14:59 | 38.31539 | -94.49716 | 31848 ft | 461 kts | 169° |
| 2026-04-24 14:59 | 38.28547 | -94.48249 | 32740 ft | 466 kts | 161° |
| 2026-04-24 14:59 | 38.25744 | -94.46230 | 33587 ft | 472 kts | 152° |
| 2026-04-24 14:59 | 38.23149 | -94.43630 | 34545 ft | 475 kts | 143° |
| 2026-04-24 15:00 | 38.20800 | -94.40692 | 35580 ft | 472 kts | 141° |
| 2026-04-24 15:00 | 38.18534 | -94.37775 | 36354 ft | 470 kts | 141° |
| 2026-04-24 15:00 | 38.16215 | -94.34794 | 37023 ft | 470 kts | 141° |
| 2026-04-24 15:00 | 38.13885 | -94.31805 | 37660 ft | 470 kts | 141° |
| 2026-04-24 15:01 | 38.11576 | -94.28848 | 38355 ft | 467 kts | 141° |
| 2026-04-24 15:01 | 38.09296 | -94.25935 | 39017 ft | 464 kts | 141° |
| 2026-04-24 15:01 | 38.07005 | -94.23010 | 39660 ft | 461 kts | 141° |
| 2026-04-24 15:01 | 38.04741 | -94.20126 | 40172 ft | 459 kts | 141° |
| 2026-04-24 15:02 | 38.02493 | -94.17267 | 40452 ft | 460 kts | 141° |
| 2026-04-24 15:02 | 38.00193 | -94.14347 | 40621 ft | 464 kts | 141° |
| 2026-04-24 15:02 | 37.97901 | -94.11440 | 40807 ft | 467 kts | 141° |
| 2026-04-24 15:03 | 37.94068 | -94.06582 | 40864 ft | 469 kts | 141° |
| 2026-04-24 15:03 | 37.88749 | -93.99848 | 40868 ft | 460 kts | 141° |
| 2026-04-24 15:04 | 37.84216 | -93.94128 | 40866 ft | 463 kts | 141° |
| 2026-04-24 15:04 | 37.79655 | -93.88380 | 40870 ft | 462 kts | 141° |
| 2026-04-24 15:05 | 37.75121 | -93.82677 | 40864 ft | 458 kts | 141° |
| 2026-04-24 15:05 | 37.70564 | -93.76960 | 40860 ft | 464 kts | 141° |
| 2026-04-24 15:06 | 37.66043 | -93.71291 | 40858 ft | 458 kts | 141° |
| 2026-04-24 15:06 | 37.61524 | -93.65640 | 40863 ft | 461 kts | 141° |
| 2026-04-24 15:07 | 37.56967 | -93.59952 | 40851 ft | 460 kts | 141° |
| 2026-04-24 15:07 | 37.52442 | -93.54311 | 40839 ft | 458 kts | 141° |
| 2026-04-24 15:08 | 37.47881 | -93.48640 | 40842 ft | 462 kts | 141° |
| 2026-04-24 15:08 | 37.43367 | -93.43031 | 40844 ft | 456 kts | 141° |
| 2026-04-24 15:09 | 37.38809 | -93.37382 | 40840 ft | 459 kts | 141° |
| 2026-04-24 15:09 | 37.34559 | -93.31387 | 40837 ft | 466 kts | 130° |
| 2026-04-24 15:10 | 37.31073 | -93.24541 | 40834 ft | 470 kts | 128° |
| 2026-04-24 15:10 | 37.27588 | -93.17631 | 40840 ft | 468 kts | 128° |
| 2026-04-24 15:11 | 37.24094 | -93.10735 | 40845 ft | 470 kts | 128° |
| 2026-04-24 15:11 | 37.20593 | -93.03847 | 40846 ft | 470 kts | 128° |
| 2026-04-24 15:12 | 37.17088 | -92.96970 | 40837 ft | 469 kts | 128° |
| 2026-04-24 15:12 | 37.11831 | -92.86687 | 40839 ft | 469 kts | 128° |
| 2026-04-24 15:13 | 37.08299 | -92.79798 | 40838 ft | 470 kts | 128° |
| 2026-04-24 15:13 | 37.04774 | -92.72936 | 40838 ft | 470 kts | 128° |
| 2026-04-24 15:14 | 37.01253 | -92.66097 | 40835 ft | 469 kts | 128° |
| 2026-04-24 15:14 | 36.97740 | -92.59288 | 40834 ft | 469 kts | 128° |
| 2026-04-24 15:15 | 36.94191 | -92.52424 | 40835 ft | 470 kts | 128° |
| 2026-04-24 15:15 | 36.90663 | -92.45612 | 40839 ft | 470 kts | 128° |
| 2026-04-24 15:16 | 36.87085 | -92.38720 | 40848 ft | 473 kts | 128° |
| 2026-04-24 15:16 | 36.83522 | -92.31870 | 40841 ft | 471 kts | 128° |
| 2026-04-24 15:17 | 36.79958 | -92.25029 | 40838 ft | 471 kts | 128° |
| 2026-04-24 15:17 | 36.76377 | -92.18173 | 40841 ft | 471 kts | 128° |
| 2026-04-24 15:18 | 36.72827 | -92.11390 | 40841 ft | 471 kts | 128° |
| 2026-04-24 15:18 | 36.69242 | -92.04553 | 40848 ft | 471 kts | 128° |
| 2026-04-24 15:19 | 36.65663 | -91.97742 | 40846 ft | 472 kts | 128° |
| 2026-04-24 15:19 | 36.62069 | -91.90914 | 40844 ft | 470 kts | 128° |
| 2026-04-24 15:20 | 36.58513 | -91.84174 | 40844 ft | 470 kts | 128° |
| 2026-04-24 15:20 | 36.54927 | -91.77389 | 40845 ft | 470 kts | 128° |
| 2026-04-24 15:21 | 36.51339 | -91.70615 | 40845 ft | 468 kts | 128° |
| 2026-04-24 15:21 | 36.47759 | -91.63869 | 40844 ft | 468 kts | 128° |
| 2026-04-24 15:22 | 36.44173 | -91.57125 | 40849 ft | 468 kts | 127° |
| 2026-04-24 15:23 | 36.38806 | -91.47058 | 40846 ft | 466 kts | 127° |
| 2026-04-24 15:23 | 36.33429 | -91.37002 | 40846 ft | 466 kts | 127° |
| 2026-04-24 15:25 | 36.25066 | -91.21416 | 40845 ft | 467 kts | 128° |
| 2026-04-24 15:26 | 36.15464 | -91.03612 | 40872 ft | 466 kts | 128° |
| 2026-04-24 15:27 | 36.05806 | -90.82533 | 40877 ft | 479 kts | 120° |
| 2026-04-24 15:29 | 35.96841 | -90.60327 | 40879 ft | 486 kts | 119° |
| 2026-04-24 15:31 | 35.86634 | -90.35279 | 40888 ft | 489 kts | 118° |
| 2026-04-24 15:33 | 35.73876 | -90.04251 | 40891 ft | 491 kts | 118° |
| 2026-04-24 15:34 | 35.66170 | -89.85651 | 40904 ft | 486 kts | 118° |
| 2026-04-24 15:35 | 35.58484 | -89.67204 | 40907 ft | 482 kts | 118° |
| 2026-04-24 15:36 | 35.55441 | -89.59927 | 40842 ft | 477 kts | 118° |
| 2026-04-24 15:36 | 35.52404 | -89.52684 | 40163 ft | 479 kts | 117° |
| 2026-04-24 15:36 | 35.50892 | -89.49082 | 39941 ft | 477 kts | 117° |
| 2026-04-24 15:37 | 35.49375 | -89.45473 | 39767 ft | 475 kts | 117° |
| 2026-04-24 15:37 | 35.47868 | -89.41891 | 39465 ft | 474 kts | 117° |
| 2026-04-24 15:37 | 35.46860 | -89.39499 | 39165 ft | 476 kts | 117° |
| 2026-04-24 15:37 | 35.44832 | -89.34689 | 38482 ft | 481 kts | 118° |
| 2026-04-24 15:38 | 35.43271 | -89.30994 | 38017 ft | 484 kts | 118° |
| 2026-04-24 15:38 | 35.41732 | -89.27351 | 37686 ft | 484 kts | 118° |
| 2026-04-24 15:38 | 35.40181 | -89.23685 | 37449 ft | 483 kts | 117° |
| 2026-04-24 15:38 | 35.38636 | -89.20037 | 37166 ft | 483 kts | 117° |
| 2026-04-24 15:39 | 35.37089 | -89.16389 | 36801 ft | 485 kts | 117° |
| 2026-04-24 15:39 | 35.35518 | -89.12688 | 36421 ft | 488 kts | 117° |
| 2026-04-24 15:39 | 35.33940 | -89.08975 | 36059 ft | 490 kts | 117° |
| 2026-04-24 15:39 | 35.32371 | -89.05287 | 35781 ft | 490 kts | 117° |
| 2026-04-24 15:40 | 35.30781 | -89.01556 | 35489 ft | 491 kts | 117° |
| 2026-04-24 15:40 | 35.29215 | -88.97884 | 35107 ft | 494 kts | 117° |
| 2026-04-24 15:40 | 35.27611 | -88.94128 | 34721 ft | 497 kts | 117° |
| 2026-04-24 15:40 | 35.26019 | -88.90404 | 34388 ft | 498 kts | 117° |
| 2026-04-24 15:41 | 35.24400 | -88.86620 | 34079 ft | 499 kts | 116° |
| 2026-04-24 15:41 | 35.22786 | -88.82854 | 33770 ft | 500 kts | 116° |
| 2026-04-24 15:41 | 35.21181 | -88.79112 | 33434 ft | 502 kts | 116° |
| 2026-04-24 15:41 | 35.19549 | -88.75312 | 33119 ft | 503 kts | 116° |
| 2026-04-24 15:42 | 35.17949 | -88.71590 | 32706 ft | 499 kts | 116° |
| 2026-04-24 15:42 | 35.16320 | -88.67806 | 31722 ft | 501 kts | 116° |
| 2026-04-24 15:42 | 35.14704 | -88.64056 | 30722 ft | 502 kts | 116° |
| 2026-04-24 15:42 | 35.13104 | -88.60346 | 30119 ft | 495 kts | 116° |
| 2026-04-24 15:43 | 35.11508 | -88.56651 | 29589 ft | 486 kts | 116° |
| 2026-04-24 15:43 | 35.09952 | -88.53052 | 29030 ft | 481 kts | 116° |
| 2026-04-24 15:43 | 35.08372 | -88.49397 | 28415 ft | 492 kts | 116° |
| 2026-04-24 15:43 | 35.06775 | -88.45711 | 27774 ft | 492 kts | 116° |
| 2026-04-24 15:44 | 35.05186 | -88.42048 | 27146 ft | 487 kts | 116° |
| 2026-04-24 15:44 | 35.03623 | -88.38446 | 26539 ft | 480 kts | 116° |
| 2026-04-24 15:44 | 35.02059 | -88.34849 | 25933 ft | 474 kts | 117° |
| 2026-04-24 15:44 | 35.00543 | -88.31363 | 25337 ft | 468 kts | 117° |
| 2026-04-24 15:45 | 34.99007 | -88.27837 | 24740 ft | 462 kts | 117° |
| 2026-04-24 15:45 | 34.97508 | -88.24399 | 24150 ft | 458 kts | 118° |
| 2026-04-24 15:45 | 34.96022 | -88.20993 | 23558 ft | 455 kts | 118° |
| 2026-04-24 15:45 | 34.94551 | -88.17625 | 22982 ft | 451 kts | 118° |
| 2026-04-24 15:46 | 34.93085 | -88.14271 | 22406 ft | 446 kts | 118° |
| 2026-04-24 15:46 | 34.91643 | -88.10976 | 21827 ft | 442 kts | 118° |
| 2026-04-24 15:46 | 34.90207 | -88.07698 | 21240 ft | 439 kts | 118° |
| 2026-04-24 15:46 | 34.88771 | -88.04425 | 20647 ft | 436 kts | 118° |
| 2026-04-24 15:47 | 34.87352 | -88.01191 | 20056 ft | 432 kts | 118° |
| 2026-04-24 15:47 | 34.85945 | -87.97989 | 19471 ft | 428 kts | 118° |
| 2026-04-24 15:47 | 34.84536 | -87.94786 | 18869 ft | 425 kts | 118° |
| 2026-04-24 15:47 | 34.83157 | -87.91652 | 18280 ft | 421 kts | 118° |
| 2026-04-24 15:48 | 34.81781 | -87.88530 | 17694 ft | 417 kts | 118° |
| 2026-04-24 15:48 | 34.80422 | -87.85448 | 17105 ft | 414 kts | 118° |
| 2026-04-24 15:48 | 34.79075 | -87.82398 | 16517 ft | 411 kts | 118° |
| 2026-04-24 15:48 | 34.77738 | -87.79371 | 15913 ft | 407 kts | 118° |
| 2026-04-24 15:49 | 34.76399 | -87.76343 | 15315 ft | 402 kts | 117° |
| 2026-04-24 15:49 | 34.75090 | -87.73386 | 14732 ft | 398 kts | 117° |
| 2026-04-24 15:49 | 34.73797 | -87.70466 | 14163 ft | 394 kts | 117° |
| 2026-04-24 15:49 | 34.72526 | -87.67551 | 13565 ft | 389 kts | 114° |
| 2026-04-24 15:50 | 34.71625 | -87.64477 | 12984 ft | 383 kts | 102° |
| 2026-04-24 15:50 | 34.71297 | -87.61336 | 12565 ft | 372 kts | 89° |
| 2026-04-24 15:50 | 34.71357 | -87.58213 | 12204 ft | 362 kts | 86° |
| 2026-04-24 15:50 | 34.71459 | -87.55226 | 11858 ft | 354 kts | 86° |
| 2026-04-24 15:51 | 34.71566 | -87.52259 | 11598 ft | 343 kts | 86° |
| 2026-04-24 15:51 | 34.71677 | -87.49438 | 11361 ft | 334 kts | 86° |
| 2026-04-24 15:51 | 34.71789 | -87.46678 | 11105 ft | 321 kts | 86° |
| 2026-04-24 15:51 | 34.71905 | -87.44021 | 10871 ft | 310 kts | 86° |
| 2026-04-24 15:52 | 34.72020 | -87.41466 | 10689 ft | 293 kts | 86° |
| 2026-04-24 15:52 | 34.72134 | -87.39036 | 10272 ft | 286 kts | 86° |
| 2026-04-24 15:52 | 34.72258 | -87.36650 | 9704 ft | 285 kts | 86° |
| 2026-04-24 15:52 | 34.72395 | -87.34258 | 9282 ft | 284 kts | 86° |
| 2026-04-24 15:53 | 34.72865 | -87.31941 | 8908 ft | 283 kts | 63° |
| 2026-04-24 15:53 | 34.73900 | -87.29894 | 8586 ft | 282 kts | 57° |
| 2026-04-24 15:53 | 34.74997 | -87.27900 | 8246 ft | 282 kts | 56° |
| 2026-04-24 15:53 | 34.76094 | -87.25929 | 7910 ft | 283 kts | 56° |
| 2026-04-24 15:54 | 34.77196 | -87.23964 | 7614 ft | 281 kts | 56° |
| 2026-04-24 15:54 | 34.78302 | -87.22005 | 7321 ft | 280 kts | 56° |
| 2026-04-24 15:54 | 34.79394 | -87.20077 | 7018 ft | 279 kts | 56° |
| 2026-04-24 15:54 | 34.80447 | -87.18083 | 6663 ft | 279 kts | 67° |
| 2026-04-24 15:55 | 34.80902 | -87.15803 | 6326 ft | 276 kts | 85° |
| 2026-04-24 15:55 | 34.81116 | -87.13507 | 6045 ft | 274 kts | 86° |
| 2026-04-24 15:55 | 34.81323 | -87.11238 | 5748 ft | 273 kts | 86° |
| 2026-04-24 15:55 | 34.81533 | -87.08955 | 5472 ft | 271 kts | 86° |
| 2026-04-24 15:56 | 34.81748 | -87.06676 | 5178 ft | 270 kts | 86° |
| 2026-04-24 15:56 | 34.81963 | -87.04430 | 4936 ft | 267 kts | 86° |
| 2026-04-24 15:56 | 34.82174 | -87.02181 | 4701 ft | 267 kts | 86° |
| 2026-04-24 15:56 | 34.82384 | -86.99939 | 4463 ft | 267 kts | 86° |
| 2026-04-24 15:57 | 34.82592 | -86.97705 | 4220 ft | 265 kts | 86° |
| 2026-04-24 15:57 | 34.82780 | -86.95488 | 3994 ft | 261 kts | 91° |
| 2026-04-24 15:57 | 34.82755 | -86.94024 | 3961 ft | 258 kts | 95° |
| 2026-04-24 15:57 | 34.82619 | -86.91065 | 3955 ft | 263 kts | 96° |
| 2026-04-24 15:58 | 34.82514 | -86.88853 | 3952 ft | 261 kts | 96° |
| 2026-04-24 15:58 | 34.82412 | -86.86697 | 3952 ft | 249 kts | 96° |
| 2026-04-24 15:58 | 34.82318 | -86.84656 | 3952 ft | 236 kts | 96° |
| 2026-04-24 15:58 | 34.82240 | -86.82742 | 3976 ft | 220 kts | 96° |
| 2026-04-24 15:59 | 34.82160 | -86.80927 | 3881 ft | 207 kts | 101° |
| 2026-04-24 15:59 | 34.81609 | -86.79417 | 3670 ft | 193 kts | 137° |
| 2026-04-24 15:59 | 34.80595 | -86.78396 | 3441 ft | 188 kts | 146° |
| 2026-04-24 15:59 | 34.79561 | -86.77433 | 3219 ft | 184 kts | 146° |
| 2026-04-24 16:00 | 34.78553 | -86.76537 | 3009 ft | 178 kts | 155° |
| 2026-04-24 16:00 | 34.77392 | -86.76251 | 2809 ft | 167 kts | 182° |
| 2026-04-24 16:00 | 34.76244 | -86.76329 | 2618 ft | 163 kts | 183° |
| 2026-04-24 16:00 | 34.75145 | -86.76356 | 2428 ft | 149 kts | 182° |
| 2026-04-24 16:01 | 34.74133 | -86.76372 | 2253 ft | 140 kts | 182° |
| 2026-04-24 16:01 | 34.73209 | -86.76392 | 2098 ft | 131 kts | 182° |
| 2026-04-24 16:01 | 34.72287 | -86.76410 | 1937 ft | 132 kts | 183° |
| 2026-04-24 16:01 | 34.71368 | -86.76417 | 1762 ft | 132 kts | 181° |
| 2026-04-24 16:02 | 34.70446 | -86.76431 | 1598 ft | 131 kts | 184° |
| 2026-04-24 16:02 | 34.69530 | -86.76463 | 1438 ft | 131 kts | 183° |
| 2026-04-24 16:02 | 34.68617 | -86.76486 | 1276 ft | 131 kts | 182° |
| 2026-04-24 16:02 | 34.67709 | -86.76488 | 1109 ft | 131 kts | 183° |
| 2026-04-24 16:03 | 34.66787 | -86.76519 | 924 ft | 131 kts | 183° |
| 2026-04-24 16:03 | 34.65871 | -86.76534 | 759 ft | 131 kts | 183° |
| 2026-04-24 16:03 | 34.64954 | -86.76554 | 623 ft | 129 kts | 183° |
| 2026-04-24 16:03 | 34.64188 | -86.76572 | 616 ft | 87 kts | 181° |
| 2026-04-24 16:04 | 34.63860 | -86.76578 | 611 ft | 14 kts | 181° |
| 2026-04-24 16:04 | 34.63843 | -86.76578 | 610 ft | 6 kts | 181° |
| 2026-04-24 16:04 | 34.63760 | -86.76585 | 608 ft | 15 kts | 190° |
| 2026-04-24 16:04 | 34.63705 | -86.76673 | 607 ft | 11 kts | 273° |
| 2026-04-24 16:05 | 34.63839 | -86.76718 | 610 ft | 7 kts | 359° |
| 2026-04-24 16:05 | 34.63909 | -86.76723 | 612 ft | 15 kts | 357° |
| 2026-04-24 16:06 | 34.64140 | -86.76745 | 616 ft | 15 kts | 315° |
| 2026-04-24 16:06 | 34.64159 | -86.76878 | 616 ft | 17 kts | 272° |
| 2026-04-24 16:06 | 34.64164 | -86.77180 | 619 ft | 18 kts | 270° |
| 2026-04-24 16:07 | 34.64167 | -86.77336 | 622 ft | 18 kts | 271° |
| 2026-04-24 16:07 | 34.64168 | -86.77488 | 625 ft | 17 kts | 270° |
| 2026-04-24 16:07 | 34.64170 | -86.77784 | 630 ft | 17 kts | 270° |
| 2026-04-24 16:08 | 34.64181 | -86.77927 | 633 ft | 16 kts | 291° |
| 2026-04-24 16:08 | 34.64399 | -86.77979 | 633 ft | 18 kts | 1° |
| 2026-04-24 16:09 | 34.64674 | -86.77973 | 634 ft | 20 kts | 1° |
| 2026-04-24 16:09 | 34.64816 | -86.77970 | 634 ft | 19 kts | 1° |
| 2026-04-24 16:09 | 34.64863 | -86.77963 | 633 ft | 7 kts | 25° |
| 2026-04-24 16:09 | 34.64852 | -86.77853 | 632 ft | 14 kts | 110° |
| 2026-04-24 16:10 | 34.64693 | -86.77715 | 629 ft | 5 kts | 180° |
| 2026-04-24 16:11 | 34.64692 | -86.77715 | 629 ft | 0 kts | 180° |